sensor_id;sensor_type;location;lat;lon;timestamp;pressure;altitude;pressure_sealevel;temperature;humidity
70256;BME280;57669;52.624;-1.688;2022-11-30T00:01:13;101774.81;;;4.40;59.08
70256;BME280;57669;52.624;-1.688;2022-11-30T00:03:37;101778.41;;;4.12;60.69
70256;BME280;57669;52.624;-1.688;2022-11-30T00:06:03;101777.90;;;2.08;64.96
70256;BME280;57669;52.624;-1.688;2022-11-30T00:08:37;101780.04;;;3.00;62.84
70256;BME280;57669;52.624;-1.688;2022-11-30T00:10:54;101777.03;;;3.21;62.29
70256;BME280;57669;52.624;-1.688;2022-11-30T00:13:19;101768.42;;;2.50;64.31
70256;BME280;57669;52.624;-1.688;2022-11-30T00:15:44;101771.11;;;3.37;62.16
70256;BME280;57669;52.624;-1.688;2022-11-30T00:18:10;101770.51;;;2.65;63.86
70256;BME280;57669;52.624;-1.688;2022-11-30T00:20:41;101770.07;;;2.59;64.03
70256;BME280;57669;52.624;-1.688;2022-11-30T00:23:01;101775.01;;;2.31;64.13
70256;BME280;57669;52.624;-1.688;2022-11-30T00:25:27;101769.59;;;2.08;65.41
70256;BME280;57669;52.624;-1.688;2022-11-30T00:27:52;101772.06;;;2.58;65.36
70256;BME280;57669;52.624;-1.688;2022-11-30T00:30:17;101768.80;;;2.45;64.87
70256;BME280;57669;52.624;-1.688;2022-11-30T00:32:43;101774.51;;;3.37;62.79
70256;BME280;57669;52.624;-1.688;2022-11-30T00:35:08;101773.35;;;3.05;63.40
70256;BME280;57669;52.624;-1.688;2022-11-30T00:37:34;101766.64;;;3.43;62.34
70256;BME280;57669;52.624;-1.688;2022-11-30T00:39:59;101762.73;;;3.44;62.34
70256;BME280;57669;52.624;-1.688;2022-11-30T00:42:25;101758.79;;;3.26;62.83
70256;BME280;57669;52.624;-1.688;2022-11-30T00:44:50;101753.99;;;3.56;61.23
70256;BME280;57669;52.624;-1.688;2022-11-30T00:47:15;101746.67;;;4.11;60.73
70256;BME280;57669;52.624;-1.688;2022-11-30T00:49:41;101744.11;;;4.01;60.41
70256;BME280;57669;52.624;-1.688;2022-11-30T00:52:06;101749.08;;;3.61;60.68
70256;BME280;57669;52.624;-1.688;2022-11-30T00:54:32;101753.54;;;4.25;60.12
70256;BME280;57669;52.624;-1.688;2022-11-30T00:56:57;101755.80;;;3.47;62.02
70256;BME280;57669;52.624;-1.688;2022-11-30T00:59:23;101755.03;;;3.42;61.75
70256;BME280;57669;52.624;-1.688;2022-11-30T01:01:48;101752.26;;;3.66;61.65
70256;BME280;57669;52.624;-1.688;2022-11-30T01:04:14;101752.17;;;4.17;61.15
70256;BME280;57669;52.624;-1.688;2022-11-30T01:06:39;101753.66;;;3.84;61.26
70256;BME280;57669;52.624;-1.688;2022-11-30T01:09:06;101754.41;;;3.18;62.51
70256;BME280;57669;52.624;-1.688;2022-11-30T01:11:30;101753.57;;;3.71;61.20
70256;BME280;57669;52.624;-1.688;2022-11-30T01:13:56;101755.83;;;3.92;60.88
70256;BME280;57669;52.624;-1.688;2022-11-30T01:18:46;101761.50;;;1.93;64.99
70256;BME280;57669;52.624;-1.688;2022-11-30T01:21:14;101765.26;;;3.16;63.09
70256;BME280;57669;52.624;-1.688;2022-11-30T01:23:36;101768.69;;;3.01;62.77
70256;BME280;57669;52.624;-1.688;2022-11-30T01:26:02;101765.39;;;2.60;63.77
70256;BME280;57669;52.624;-1.688;2022-11-30T01:28:29;101760.93;;;3.74;61.12
70256;BME280;57669;52.624;-1.688;2022-11-30T01:30:58;101763.29;;;3.34;61.20
70256;BME280;57669;52.624;-1.688;2022-11-30T01:33:18;101761.18;;;3.98;59.87
70256;BME280;57669;52.624;-1.688;2022-11-30T01:35:43;101758.36;;;4.82;58.39
70256;BME280;57669;52.624;-1.688;2022-11-30T01:38:09;101763.48;;;4.87;57.17
70256;BME280;57669;52.624;-1.688;2022-11-30T01:40:34;101765.16;;;4.14;59.21
70256;BME280;57669;52.624;-1.688;2022-11-30T01:43:00;101766.27;;;4.94;57.26
70256;BME280;57669;52.624;-1.688;2022-11-30T01:45:26;101765.92;;;4.37;58.74
70256;BME280;57669;52.624;-1.688;2022-11-30T01:47:53;101767.99;;;4.56;59.53
70256;BME280;57669;52.624;-1.688;2022-11-30T01:50:19;101766.71;;;4.20;60.21
70256;BME280;57669;52.624;-1.688;2022-11-30T01:52:46;101770.08;;;4.49;59.88
70256;BME280;57669;52.624;-1.688;2022-11-30T01:55:15;101767.64;;;4.46;59.97
70256;BME280;57669;52.624;-1.688;2022-11-30T01:57:37;101763.68;;;3.90;60.36
70256;BME280;57669;52.624;-1.688;2022-11-30T02:00:03;101764.16;;;4.12;59.14
70256;BME280;57669;52.624;-1.688;2022-11-30T02:02:29;101763.31;;;4.18;58.55
70256;BME280;57669;52.624;-1.688;2022-11-30T02:04:51;101770.08;;;4.51;57.77
70256;BME280;57669;52.624;-1.688;2022-11-30T02:07:16;101773.75;;;3.44;59.94
70256;BME280;57669;52.624;-1.688;2022-11-30T02:09:43;101770.66;;;4.66;58.25
70256;BME280;57669;52.624;-1.688;2022-11-30T02:12:14;101766.64;;;4.36;57.97
70256;BME280;57669;52.624;-1.688;2022-11-30T02:14:38;101773.61;;;4.95;56.99
70256;BME280;57669;52.624;-1.688;2022-11-30T02:17:07;101769.75;;;4.21;58.00
70256;BME280;57669;52.624;-1.688;2022-11-30T02:21:53;101782.10;;;4.42;57.79
70256;BME280;57669;52.624;-1.688;2022-11-30T02:24:26;101781.00;;;4.64;56.97
70256;BME280;57669;52.624;-1.688;2022-11-30T02:26:50;101785.04;;;4.10;58.04
70256;BME280;57669;52.624;-1.688;2022-11-30T02:29:11;101784.98;;;4.63;57.96
70256;BME280;57669;52.624;-1.688;2022-11-30T02:31:35;101788.59;;;4.57;58.06
70256;BME280;57669;52.624;-1.688;2022-11-30T02:33:56;101786.70;;;4.32;58.22
70256;BME280;57669;52.624;-1.688;2022-11-30T02:36:21;101787.71;;;3.18;60.26
70256;BME280;57669;52.624;-1.688;2022-11-30T02:38:45;101788.26;;;4.32;58.62
70256;BME280;57669;52.624;-1.688;2022-11-30T02:41:11;101785.16;;;4.42;58.36
70256;BME280;57669;52.624;-1.688;2022-11-30T02:43:36;101783.11;;;4.08;59.40
70256;BME280;57669;52.624;-1.688;2022-11-30T02:46:06;101787.66;;;3.80;59.62
70256;BME280;57669;52.624;-1.688;2022-11-30T02:48:30;101785.97;;;4.26;58.72
70256;BME280;57669;52.624;-1.688;2022-11-30T02:50:56;101784.28;;;3.98;59.24
70256;BME280;57669;52.624;-1.688;2022-11-30T02:53:18;101781.76;;;4.72;57.70
70256;BME280;57669;52.624;-1.688;2022-11-30T02:55:43;101786.96;;;3.46;59.98
70256;BME280;57669;52.624;-1.688;2022-11-30T02:58:08;101786.86;;;4.21;58.09
70256;BME280;57669;52.624;-1.688;2022-11-30T03:00:33;101783.67;;;4.63;58.20
70256;BME280;57669;52.624;-1.688;2022-11-30T03:02:59;101780.79;;;4.24;57.26
70256;BME280;57669;52.624;-1.688;2022-11-30T03:05:25;101785.42;;;4.65;56.43
70256;BME280;57669;52.624;-1.688;2022-11-30T03:07:51;101789.22;;;5.49;55.61
70256;BME280;57669;52.624;-1.688;2022-11-30T03:10:16;101786.57;;;5.58;55.34
70256;BME280;57669;52.624;-1.688;2022-11-30T03:12:42;101780.69;;;4.75;55.81
70256;BME280;57669;52.624;-1.688;2022-11-30T03:15:07;101780.34;;;5.55;55.15
70256;BME280;57669;52.624;-1.688;2022-11-30T03:17:32;101785.41;;;5.53;54.42
70256;BME280;57669;52.624;-1.688;2022-11-30T03:19:57;101788.55;;;5.24;55.10
70256;BME280;57669;52.624;-1.688;2022-11-30T03:22:22;101780.57;;;5.53;54.47
70256;BME280;57669;52.624;-1.688;2022-11-30T03:24:48;101778.97;;;5.28;54.63
70256;BME280;57669;52.624;-1.688;2022-11-30T03:27:13;101773.74;;;5.65;54.15
70256;BME280;57669;52.624;-1.688;2022-11-30T03:29:38;101780.88;;;5.43;54.14
70256;BME280;57669;52.624;-1.688;2022-11-30T03:32:04;101789.09;;;5.76;54.17
70256;BME280;57669;52.624;-1.688;2022-11-30T03:34:29;101791.27;;;5.51;54.23
70256;BME280;57669;52.624;-1.688;2022-11-30T03:36:55;101783.05;;;6.26;53.24
70256;BME280;57669;52.624;-1.688;2022-11-30T03:39:20;101787.98;;;5.88;53.49
70256;BME280;57669;52.624;-1.688;2022-11-30T03:41:45;101785.55;;;5.39;54.45
70256;BME280;57669;52.624;-1.688;2022-11-30T03:44:10;101783.53;;;5.16;54.67
70256;BME280;57669;52.624;-1.688;2022-11-30T03:46:36;101787.61;;;5.34;54.87
70256;BME280;57669;52.624;-1.688;2022-11-30T03:49:01;101788.63;;;5.77;53.99
70256;BME280;57669;52.624;-1.688;2022-11-30T03:51:26;101781.06;;;5.00;54.35
70256;BME280;57669;52.624;-1.688;2022-11-30T03:53:52;101779.18;;;5.30;54.80
70256;BME280;57669;52.624;-1.688;2022-11-30T03:56:17;101780.59;;;5.65;54.21
70256;BME280;57669;52.624;-1.688;2022-11-30T03:58:42;101781.21;;;5.82;53.86
70256;BME280;57669;52.624;-1.688;2022-11-30T04:01:09;101781.33;;;5.70;54.17
70256;BME280;57669;52.624;-1.688;2022-11-30T04:03:34;101783.99;;;5.72;54.34
70256;BME280;57669;52.624;-1.688;2022-11-30T04:05:59;101784.82;;;5.32;55.42
70256;BME280;57669;52.624;-1.688;2022-11-30T04:08:24;101780.43;;;6.01;53.87
70256;BME280;57669;52.624;-1.688;2022-11-30T04:10:50;101784.77;;;5.61;53.76
70256;BME280;57669;52.624;-1.688;2022-11-30T04:13:15;101788.58;;;5.60;54.74
70256;BME280;57669;52.624;-1.688;2022-11-30T04:15:40;101782.19;;;5.54;54.37
70256;BME280;57669;52.624;-1.688;2022-11-30T04:18:06;101787.49;;;5.67;54.16
70256;BME280;57669;52.624;-1.688;2022-11-30T04:20:31;101792.57;;;5.92;54.00
70256;BME280;57669;52.624;-1.688;2022-11-30T04:22:56;101793.39;;;5.62;54.34
70256;BME280;57669;52.624;-1.688;2022-11-30T04:25:21;101793.54;;;5.54;54.40
70256;BME280;57669;52.624;-1.688;2022-11-30T04:30:13;101793.97;;;6.46;52.91
70256;BME280;57669;52.624;-1.688;2022-11-30T04:32:38;101797.81;;;5.78;53.66
70256;BME280;57669;52.624;-1.688;2022-11-30T04:35:04;101802.76;;;5.08;55.29
70256;BME280;57669;52.624;-1.688;2022-11-30T04:37:28;101805.46;;;5.30;55.65
70256;BME280;57669;52.624;-1.688;2022-11-30T04:39:54;101803.44;;;5.59;54.99
70256;BME280;57669;52.624;-1.688;2022-11-30T04:42:20;101803.10;;;5.66;54.33
70256;BME280;57669;52.624;-1.688;2022-11-30T04:44:45;101805.17;;;5.98;54.11
70256;BME280;57669;52.624;-1.688;2022-11-30T04:47:10;101808.72;;;5.99;54.04
70256;BME280;57669;52.624;-1.688;2022-11-30T04:49:36;101811.52;;;5.40;54.60
70256;BME280;57669;52.624;-1.688;2022-11-30T04:52:01;101815.69;;;5.56;54.25
70256;BME280;57669;52.624;-1.688;2022-11-30T04:54:26;101815.36;;;4.79;56.11
70256;BME280;57669;52.624;-1.688;2022-11-30T04:56:52;101817.01;;;4.97;56.67
70256;BME280;57669;52.624;-1.688;2022-11-30T04:59:17;101823.34;;;4.68;57.81
70256;BME280;57669;52.624;-1.688;2022-11-30T05:01:43;101822.65;;;4.80;57.10
70256;BME280;57669;52.624;-1.688;2022-11-30T05:04:08;101825.45;;;5.15;56.38
70256;BME280;57669;52.624;-1.688;2022-11-30T05:06:33;101824.95;;;5.11;56.36
70256;BME280;57669;52.624;-1.688;2022-11-30T05:09:08;101818.47;;;4.49;57.31
70256;BME280;57669;52.624;-1.688;2022-11-30T05:11:24;101818.96;;;4.89;56.83
70256;BME280;57669;52.624;-1.688;2022-11-30T05:13:49;101822.22;;;5.16;56.51
70256;BME280;57669;52.624;-1.688;2022-11-30T05:16:15;101822.79;;;4.91;56.32
70256;BME280;57669;52.624;-1.688;2022-11-30T05:18:40;101826.24;;;4.87;56.27
70256;BME280;57669;52.624;-1.688;2022-11-30T05:21:05;101825.80;;;4.94;57.04
70256;BME280;57669;52.624;-1.688;2022-11-30T05:23:30;101828.73;;;4.75;57.16
70256;BME280;57669;52.624;-1.688;2022-11-30T05:25:56;101835.46;;;4.70;57.70
70256;BME280;57669;52.624;-1.688;2022-11-30T05:28:21;101836.85;;;4.51;58.32
70256;BME280;57669;52.624;-1.688;2022-11-30T05:30:47;101834.58;;;4.44;59.06
70256;BME280;57669;52.624;-1.688;2022-11-30T05:33:12;101836.16;;;5.03;57.29
70256;BME280;57669;52.624;-1.688;2022-11-30T05:35:38;101840.59;;;4.08;58.92
70256;BME280;57669;52.624;-1.688;2022-11-30T05:38:04;101840.88;;;4.54;57.28
70256;BME280;57669;52.624;-1.688;2022-11-30T05:40:29;101846.45;;;3.91;58.95
70256;BME280;57669;52.624;-1.688;2022-11-30T05:42:55;101848.16;;;4.91;57.10
70256;BME280;57669;52.624;-1.688;2022-11-30T05:45:20;101856.86;;;4.27;58.30
70256;BME280;57669;52.624;-1.688;2022-11-30T05:47:45;101855.51;;;4.40;58.22
70256;BME280;57669;52.624;-1.688;2022-11-30T05:50:11;101849.51;;;4.92;56.60
70256;BME280;57669;52.624;-1.688;2022-11-30T05:52:36;101857.44;;;4.88;56.61
70256;BME280;57669;52.624;-1.688;2022-11-30T05:55:02;101861.67;;;5.46;55.34
70256;BME280;57669;52.624;-1.688;2022-11-30T05:59:53;101856.23;;;6.03;54.16
70256;BME280;57669;52.624;-1.688;2022-11-30T06:02:18;101857.73;;;6.15;53.46
70256;BME280;57669;52.624;-1.688;2022-11-30T06:04:43;101857.98;;;5.95;53.75
70256;BME280;57669;52.624;-1.688;2022-11-30T06:07:09;101856.99;;;6.27;53.55
70256;BME280;57669;52.624;-1.688;2022-11-30T06:09:35;101846.67;;;6.02;53.99
70256;BME280;57669;52.624;-1.688;2022-11-30T06:12:00;101846.80;;;6.30;53.33
70256;BME280;57669;52.624;-1.688;2022-11-30T06:14:25;101841.26;;;6.40;52.80
70256;BME280;57669;52.624;-1.688;2022-11-30T06:16:51;101853.24;;;6.40;52.73
70256;BME280;57669;52.624;-1.688;2022-11-30T06:19:16;101865.15;;;6.59;52.61
70256;BME280;57669;52.624;-1.688;2022-11-30T06:21:41;101860.68;;;6.74;52.36
70256;BME280;57669;52.624;-1.688;2022-11-30T06:26:31;101861.32;;;6.27;53.06
70256;BME280;57669;52.624;-1.688;2022-11-30T06:28:56;101858.88;;;6.22;53.57
70256;BME280;57669;52.624;-1.688;2022-11-30T06:31:21;101856.38;;;6.41;53.22
70256;BME280;57669;52.624;-1.688;2022-11-30T06:33:47;101855.39;;;5.53;54.17
70256;BME280;57669;52.624;-1.688;2022-11-30T06:36:12;101860.80;;;5.99;52.96
70256;BME280;57669;52.624;-1.688;2022-11-30T06:38:38;101860.60;;;6.75;52.26
70256;BME280;57669;52.624;-1.688;2022-11-30T06:41:04;101868.01;;;5.30;54.20
70256;BME280;57669;52.624;-1.688;2022-11-30T06:43:32;101865.17;;;6.00;53.90
70256;BME280;57669;52.624;-1.688;2022-11-30T06:45:54;101864.99;;;5.47;54.51
70256;BME280;57669;52.624;-1.688;2022-11-30T06:48:19;101861.19;;;6.06;53.95
70256;BME280;57669;52.624;-1.688;2022-11-30T06:50:45;101865.61;;;6.60;52.95
70256;BME280;57669;52.624;-1.688;2022-11-30T06:53:10;101871.14;;;6.06;54.13
70256;BME280;57669;52.624;-1.688;2022-11-30T06:55:36;101869.50;;;5.90;54.02
70256;BME280;57669;52.624;-1.688;2022-11-30T06:58:05;101869.78;;;5.82;54.63
70256;BME280;57669;52.624;-1.688;2022-11-30T07:00:27;101868.43;;;5.47;55.17
70256;BME280;57669;52.624;-1.688;2022-11-30T07:02:53;101869.42;;;5.30;55.56
70256;BME280;57669;52.624;-1.688;2022-11-30T07:05:19;101878.48;;;5.16;56.06
70256;BME280;57669;52.624;-1.688;2022-11-30T07:07:44;101880.61;;;5.83;54.61
70256;BME280;57669;52.624;-1.688;2022-11-30T07:10:10;101880.00;;;5.17;56.31
70256;BME280;57669;52.624;-1.688;2022-11-30T07:12:35;101881.77;;;5.51;56.02
70256;BME280;57669;52.624;-1.688;2022-11-30T07:15:00;101883.31;;;5.42;55.81
70256;BME280;57669;52.624;-1.688;2022-11-30T07:17:26;101885.33;;;5.17;56.16
70256;BME280;57669;52.624;-1.688;2022-11-30T07:19:51;101883.21;;;4.70;57.04
70256;BME280;57669;52.624;-1.688;2022-11-30T07:22:16;101886.65;;;4.71;58.06
70256;BME280;57669;52.624;-1.688;2022-11-30T07:24:41;101890.08;;;5.66;55.89
70256;BME280;57669;52.624;-1.688;2022-11-30T07:27:06;101893.65;;;5.27;55.91
70256;BME280;57669;52.624;-1.688;2022-11-30T07:29:32;101892.11;;;5.06;56.94
70256;BME280;57669;52.624;-1.688;2022-11-30T07:31:57;101893.09;;;5.32;56.45
70256;BME280;57669;52.624;-1.688;2022-11-30T07:34:38;101895.52;;;5.93;55.29
70256;BME280;57669;52.624;-1.688;2022-11-30T07:36:49;101900.53;;;5.30;55.96
70256;BME280;57669;52.624;-1.688;2022-11-30T07:39:20;101901.46;;;5.96;54.90
70256;BME280;57669;52.624;-1.688;2022-11-30T07:41:40;101904.89;;;5.89;55.10
70256;BME280;57669;52.624;-1.688;2022-11-30T07:44:05;101909.42;;;5.67;54.38
70256;BME280;57669;52.624;-1.688;2022-11-30T07:46:30;101913.80;;;5.58;55.33
70256;BME280;57669;52.624;-1.688;2022-11-30T07:48:55;101912.51;;;5.87;55.06
70256;BME280;57669;52.624;-1.688;2022-11-30T07:51:21;101908.34;;;5.90;55.20
70256;BME280;57669;52.624;-1.688;2022-11-30T07:53:46;101908.39;;;5.29;56.32
70256;BME280;57669;52.624;-1.688;2022-11-30T07:56:15;101917.03;;;5.23;56.06
70256;BME280;57669;52.624;-1.688;2022-11-30T07:58:38;101924.44;;;5.86;55.31
70256;BME280;57669;52.624;-1.688;2022-11-30T08:01:04;101928.60;;;5.73;55.32
70256;BME280;57669;52.624;-1.688;2022-11-30T08:03:28;101929.78;;;5.68;55.02
70256;BME280;57669;52.624;-1.688;2022-11-30T08:05:59;101933.08;;;5.59;55.89
70256;BME280;57669;52.624;-1.688;2022-11-30T08:08:19;101932.64;;;5.53;56.36
70256;BME280;57669;52.624;-1.688;2022-11-30T08:10:45;101930.31;;;5.65;56.18
70256;BME280;57669;52.624;-1.688;2022-11-30T08:13:11;101934.24;;;5.49;56.34
70256;BME280;57669;52.624;-1.688;2022-11-30T08:15:35;101940.61;;;6.18;54.88
70256;BME280;57669;52.624;-1.688;2022-11-30T08:18:01;101946.29;;;5.91;55.51
70256;BME280;57669;52.624;-1.688;2022-11-30T08:20:26;101948.41;;;5.93;55.12
70256;BME280;57669;52.624;-1.688;2022-11-30T08:22:51;101944.95;;;5.56;56.29
70256;BME280;57669;52.624;-1.688;2022-11-30T08:25:16;101952.24;;;5.71;56.05
70256;BME280;57669;52.624;-1.688;2022-11-30T08:27:42;101952.27;;;4.86;58.51
70256;BME280;57669;52.624;-1.688;2022-11-30T08:30:08;101957.06;;;5.75;56.22
70256;BME280;57669;52.624;-1.688;2022-11-30T08:32:33;101958.02;;;5.82;56.35
70256;BME280;57669;52.624;-1.688;2022-11-30T08:34:58;101950.92;;;5.11;58.40
70256;BME280;57669;52.624;-1.688;2022-11-30T08:37:26;101952.06;;;5.24;57.44
70256;BME280;57669;52.624;-1.688;2022-11-30T08:39:49;101956.93;;;6.02;55.81
70256;BME280;57669;52.624;-1.688;2022-11-30T08:42:15;101958.39;;;5.91;56.79
70256;BME280;57669;52.624;-1.688;2022-11-30T08:44:40;101956.72;;;5.74;56.73
70256;BME280;57669;52.624;-1.688;2022-11-30T08:47:06;101954.28;;;5.58;56.62
70256;BME280;57669;52.624;-1.688;2022-11-30T08:49:31;101959.34;;;6.08;55.39
70256;BME280;57669;52.624;-1.688;2022-11-30T08:51:57;101956.89;;;5.88;55.40
70256;BME280;57669;52.624;-1.688;2022-11-30T08:54:23;101960.88;;;6.00;55.31
70256;BME280;57669;52.624;-1.688;2022-11-30T08:56:48;101962.23;;;5.74;56.34
70256;BME280;57669;52.624;-1.688;2022-11-30T08:59:13;101959.97;;;5.87;55.38
70256;BME280;57669;52.624;-1.688;2022-11-30T09:01:39;101961.01;;;6.42;54.88
70256;BME280;57669;52.624;-1.688;2022-11-30T09:04:04;101964.42;;;5.95;55.81
70256;BME280;57669;52.624;-1.688;2022-11-30T09:06:29;101961.93;;;6.25;55.52
70256;BME280;57669;52.624;-1.688;2022-11-30T09:08:57;101962.28;;;6.02;55.27
70256;BME280;57669;52.624;-1.688;2022-11-30T09:11:22;101961.15;;;6.07;55.13
70256;BME280;57669;52.624;-1.688;2022-11-30T09:13:46;101955.07;;;6.25;54.79
70256;BME280;57669;52.624;-1.688;2022-11-30T09:16:12;101957.17;;;6.54;54.25
70256;BME280;57669;52.624;-1.688;2022-11-30T09:18:37;101957.93;;;6.67;54.13
70256;BME280;57669;52.624;-1.688;2022-11-30T09:21:03;101959.10;;;6.73;54.01
70256;BME280;57669;52.624;-1.688;2022-11-30T09:23:27;101952.23;;;6.86;53.46
70256;BME280;57669;52.624;-1.688;2022-11-30T09:25:54;101954.91;;;7.19;52.81
70256;BME280;57669;52.624;-1.688;2022-11-30T09:28:18;101959.66;;;6.58;53.28
70256;BME280;57669;52.624;-1.688;2022-11-30T09:30:43;101960.90;;;6.53;54.14
70256;BME280;57669;52.624;-1.688;2022-11-30T09:33:08;101962.89;;;6.69;53.85
70256;BME280;57669;52.624;-1.688;2022-11-30T09:35:34;101962.67;;;6.48;54.10
70256;BME280;57669;52.624;-1.688;2022-11-30T09:37:59;101965.03;;;6.98;53.15
70256;BME280;57669;52.624;-1.688;2022-11-30T09:40:27;101962.92;;;7.12;52.68
70256;BME280;57669;52.624;-1.688;2022-11-30T09:42:54;101964.36;;;7.34;52.37
70256;BME280;57669;52.624;-1.688;2022-11-30T09:45:18;101972.26;;;6.65;53.85
70256;BME280;57669;52.624;-1.688;2022-11-30T09:47:54;101970.34;;;6.17;55.20
70256;BME280;57669;52.624;-1.688;2022-11-30T09:50:12;101973.45;;;6.18;55.01
70256;BME280;57669;52.624;-1.688;2022-11-30T09:52:36;101975.41;;;6.45;54.98
70256;BME280;57669;52.624;-1.688;2022-11-30T09:55:00;101978.76;;;5.94;56.45
70256;BME280;57669;52.624;-1.688;2022-11-30T09:57:26;101982.82;;;6.29;55.34
70256;BME280;57669;52.624;-1.688;2022-11-30T09:59:54;101989.23;;;6.60;54.18
70256;BME280;57669;52.624;-1.688;2022-11-30T10:02:16;101987.76;;;6.68;54.33
70256;BME280;57669;52.624;-1.688;2022-11-30T10:04:40;101982.57;;;6.16;54.94
70256;BME280;57669;52.624;-1.688;2022-11-30T10:07:12;101981.68;;;6.80;54.12
70256;BME280;57669;52.624;-1.688;2022-11-30T10:09:41;101980.30;;;6.56;54.58
70256;BME280;57669;52.624;-1.688;2022-11-30T10:12:01;101979.89;;;6.92;54.00
70256;BME280;57669;52.624;-1.688;2022-11-30T10:14:33;101980.76;;;6.78;53.92
70256;BME280;57669;52.624;-1.688;2022-11-30T10:16:53;101980.16;;;7.32;52.82
70256;BME280;57669;52.624;-1.688;2022-11-30T10:19:22;101986.82;;;7.13;54.14
70256;BME280;57669;52.624;-1.688;2022-11-30T10:21:50;101989.57;;;6.51;54.45
70256;BME280;57669;52.624;-1.688;2022-11-30T10:24:14;101989.11;;;6.19;55.30
70256;BME280;57669;52.624;-1.688;2022-11-30T10:26:31;101993.18;;;6.84;54.07
70256;BME280;57669;52.624;-1.688;2022-11-30T10:28:58;101993.48;;;6.70;54.20
70256;BME280;57669;52.624;-1.688;2022-11-30T10:31:27;101988.47;;;7.08;53.52
70256;BME280;57669;52.624;-1.688;2022-11-30T10:33:47;101993.93;;;6.68;53.88
70256;BME280;57669;52.624;-1.688;2022-11-30T10:36:16;101991.34;;;5.87;55.68
70256;BME280;57669;52.624;-1.688;2022-11-30T10:38:40;101993.22;;;7.06;53.47
70256;BME280;57669;52.624;-1.688;2022-11-30T10:41:04;101992.15;;;7.34;53.35
70256;BME280;57669;52.624;-1.688;2022-11-30T10:43:28;101994.90;;;7.81;52.23
70256;BME280;57669;52.624;-1.688;2022-11-30T10:45:52;101999.73;;;8.06;51.39
70256;BME280;57669;52.624;-1.688;2022-11-30T10:48:22;102001.70;;;7.89;51.72
70256;BME280;57669;52.624;-1.688;2022-11-30T10:50:43;102000.59;;;7.50;52.47
70256;BME280;57669;52.624;-1.688;2022-11-30T10:53:09;101998.04;;;7.49;52.27
70256;BME280;57669;52.624;-1.688;2022-11-30T10:55:37;102002.35;;;7.54;51.71
70256;BME280;57669;52.624;-1.688;2022-11-30T10:58:02;102006.81;;;7.62;51.32
70256;BME280;57669;52.624;-1.688;2022-11-30T11:00:25;102008.09;;;8.35;50.64
70256;BME280;57669;52.624;-1.688;2022-11-30T11:02:51;102016.53;;;8.13;50.91
70256;BME280;57669;52.624;-1.688;2022-11-30T11:05:20;102023.14;;;8.15;50.93
70256;BME280;57669;52.624;-1.688;2022-11-30T11:07:46;102027.71;;;8.10;50.26
70256;BME280;57669;52.624;-1.688;2022-11-30T11:10:12;102025.21;;;7.98;50.25
70256;BME280;57669;52.624;-1.688;2022-11-30T11:12:33;102031.68;;;7.73;50.72
70256;BME280;57669;52.624;-1.688;2022-11-30T11:15:06;102033.85;;;8.68;49.58
70256;BME280;57669;52.624;-1.688;2022-11-30T11:17:23;102032.93;;;7.92;49.35
70256;BME280;57669;52.624;-1.688;2022-11-30T11:19:49;102031.19;;;8.08;49.66
70256;BME280;57669;52.624;-1.688;2022-11-30T11:22:16;102030.09;;;7.55;50.17
70256;BME280;57669;52.624;-1.688;2022-11-30T11:24:40;102036.36;;;8.43;48.97
70256;BME280;57669;52.624;-1.688;2022-11-30T11:27:05;102032.12;;;8.65;48.64
70256;BME280;57669;52.624;-1.688;2022-11-30T11:29:33;102034.17;;;8.03;49.60
70256;BME280;57669;52.624;-1.688;2022-11-30T11:32:08;102038.64;;;9.17;48.54
70256;BME280;57669;52.624;-1.688;2022-11-30T11:34:24;102038.58;;;7.91;48.65
70256;BME280;57669;52.624;-1.688;2022-11-30T11:39:23;102041.86;;;8.76;47.93
70256;BME280;57669;52.624;-1.688;2022-11-30T11:41:40;102039.41;;;8.93;47.74
70256;BME280;57669;52.624;-1.688;2022-11-30T11:44:16;102039.88;;;8.15;48.25
70256;BME280;57669;52.624;-1.688;2022-11-30T11:46:33;102036.05;;;7.43;49.51
70256;BME280;57669;52.624;-1.688;2022-11-30T11:48:58;102035.75;;;8.10;48.52
70256;BME280;57669;52.624;-1.688;2022-11-30T11:51:28;102033.90;;;7.64;49.09
70256;BME280;57669;52.624;-1.688;2022-11-30T11:53:49;102033.14;;;7.71;47.46
70256;BME280;57669;52.624;-1.688;2022-11-30T11:56:18;102032.67;;;8.45;47.57
70256;BME280;57669;52.624;-1.688;2022-11-30T11:58:42;102037.75;;;8.25;47.84
70256;BME280;57669;52.624;-1.688;2022-11-30T12:01:09;102032.69;;;8.20;47.42
70256;BME280;57669;52.624;-1.688;2022-11-30T12:03:37;102029.01;;;8.76;46.37
70256;BME280;57669;52.624;-1.688;2022-11-30T12:05:59;102026.33;;;8.80;45.62
70256;BME280;57669;52.624;-1.688;2022-11-30T12:08:27;102026.94;;;8.14;46.47
70256;BME280;57669;52.624;-1.688;2022-11-30T12:10:50;102027.39;;;8.76;46.59
70256;BME280;57669;52.624;-1.688;2022-11-30T12:13:14;102030.08;;;8.28;46.64
70256;BME280;57669;52.624;-1.688;2022-11-30T12:15:45;102024.46;;;8.30;47.39
70256;BME280;57669;52.624;-1.688;2022-11-30T12:18:07;102025.32;;;7.96;47.28
70256;BME280;57669;52.624;-1.688;2022-11-30T12:20:34;102026.50;;;7.83;47.15
70256;BME280;57669;52.624;-1.688;2022-11-30T12:23:06;102027.82;;;7.55;48.18
70256;BME280;57669;52.624;-1.688;2022-11-30T12:25:22;102023.04;;;7.15;48.70
70256;BME280;57669;52.624;-1.688;2022-11-30T12:27:48;102025.71;;;8.01;47.04
70256;BME280;57669;52.624;-1.688;2022-11-30T12:30:14;102026.53;;;8.25;45.49
70256;BME280;57669;52.624;-1.688;2022-11-30T12:32:50;102028.41;;;8.54;45.74
70256;BME280;57669;52.624;-1.688;2022-11-30T12:35:09;102028.57;;;8.74;45.78
70256;BME280;57669;52.624;-1.688;2022-11-30T12:37:33;102024.50;;;9.00;44.82
70256;BME280;57669;52.624;-1.688;2022-11-30T12:39:57;102026.21;;;8.40;44.88
70256;BME280;57669;52.624;-1.688;2022-11-30T12:42:21;102024.39;;;9.63;44.07
70256;BME280;57669;52.624;-1.688;2022-11-30T12:44:49;102017.50;;;8.70;43.67
70256;BME280;57669;52.624;-1.688;2022-11-30T12:47:20;102019.72;;;10.23;42.42
70256;BME280;57669;52.624;-1.688;2022-11-30T12:49:47;102025.50;;;9.71;43.03
70256;BME280;57669;52.624;-1.688;2022-11-30T12:52:03;102028.83;;;9.78;42.45
70256;BME280;57669;52.624;-1.688;2022-11-30T12:54:32;102034.03;;;8.68;44.80